sensor_id;sensor_type;location;lat;lon;timestamp;pressure;altitude;pressure_sealevel;temperature;humidity
68197;BME280;55019;49.382;11.358;2023-01-26T00:01:17;97133.47;;;-0.91;96.80
68197;BME280;55019;49.382;11.358;2023-01-26T00:03:43;97123.31;;;-1.07;97.59
68197;BME280;55019;49.382;11.358;2023-01-26T00:06:11;97122.84;;;-1.13;98.14
68197;BME280;55019;49.382;11.358;2023-01-26T00:08:42;97116.47;;;-0.89;97.92
68197;BME280;55019;49.382;11.358;2023-01-26T00:11:10;97115.34;;;-0.84;97.41
68197;BME280;55019;49.382;11.358;2023-01-26T00:13:36;97101.09;;;-0.86;97.47
68197;BME280;55019;49.382;11.358;2023-01-26T00:16:02;97090.69;;;-0.97;97.53
68197;BME280;55019;49.382;11.358;2023-01-26T00:18:28;97092.09;;;-1.07;98.20
68197;BME280;55019;49.382;11.358;2023-01-26T00:20:55;97080.66;;;-1.31;98.81
68197;BME280;55019;49.382;11.358;2023-01-26T00:23:23;97077.56;;;-1.36;99.28
68197;BME280;55019;49.382;11.358;2023-01-26T00:25:49;97078.13;;;-1.31;99.11
68197;BME280;55019;49.382;11.358;2023-01-26T00:28:14;97062.72;;;-1.59;99.99
68197;BME280;55019;49.382;11.358;2023-01-26T00:30:40;97062.38;;;-1.68;100.00
68197;BME280;55019;49.382;11.358;2023-01-26T00:33:05;97056.97;;;-1.78;100.00
68197;BME280;55019;49.382;11.358;2023-01-26T00:35:32;97065.63;;;-1.99;100.00
68197;BME280;55019;49.382;11.358;2023-01-26T00:37:57;97047.97;;;-2.17;100.00
68197;BME280;55019;49.382;11.358;2023-01-26T00:40:23;97059.13;;;-1.87;100.00
68197;BME280;55019;49.382;11.358;2023-01-26T00:42:48;97038.63;;;-2.32;100.00
68197;BME280;55019;49.382;11.358;2023-01-26T00:45:14;97039.34;;;-2.30;100.00
68197;BME280;55019;49.382;11.358;2023-01-26T00:47:40;97035.63;;;-2.23;100.00
68197;BME280;55019;49.382;11.358;2023-01-26T00:50:05;97038.63;;;-1.83;100.00
68197;BME280;55019;49.382;11.358;2023-01-26T00:52:34;97039.34;;;-1.64;100.00
68197;BME280;55019;49.382;11.358;2023-01-26T00:54:59;97038.34;;;-1.61;100.00
68197;BME280;55019;49.382;11.358;2023-01-26T00:57:25;97023.03;;;-1.43;100.00
68197;BME280;55019;49.382;11.358;2023-01-26T00:59:51;97034.63;;;-1.39;100.00
68197;BME280;55019;49.382;11.358;2023-01-26T01:02:16;97035.31;;;-1.36;99.29
68197;BME280;55019;49.382;11.358;2023-01-26T01:04:42;97024.91;;;-1.46;99.74
68197;BME280;55019;49.382;11.358;2023-01-26T01:07:07;97025.34;;;-1.23;99.43
68197;BME280;55019;49.382;11.358;2023-01-26T01:09:33;97019.84;;;-1.31;99.32
68197;BME280;55019;49.382;11.358;2023-01-26T01:11:58;97024.50;;;-1.24;99.73
68197;BME280;55019;49.382;11.358;2023-01-26T01:14:24;97021.47;;;-1.15;98.81
68197;BME280;55019;49.382;11.358;2023-01-26T01:16:49;97024.84;;;-1.14;99.01
68197;BME280;55019;49.382;11.358;2023-01-26T01:19:17;97019.63;;;-1.11;98.64
68197;BME280;55019;49.382;11.358;2023-01-26T01:21:43;97009.63;;;-1.30;98.55
68197;BME280;55019;49.382;11.358;2023-01-26T01:24:10;97010.59;;;-1.32;100.00
68197;BME280;55019;49.382;11.358;2023-01-26T01:26:36;96999.25;;;-1.25;99.70
68197;BME280;55019;49.382;11.358;2023-01-26T01:29:02;96996.53;;;-1.53;99.49
68197;BME280;55019;49.382;11.358;2023-01-26T01:31:28;96994.50;;;-1.46;99.55
68197;BME280;55019;49.382;11.358;2023-01-26T01:33:55;97002.28;;;-1.82;100.00
68197;BME280;55019;49.382;11.358;2023-01-26T01:36:21;96995.56;;;-1.83;100.00
68197;BME280;55019;49.382;11.358;2023-01-26T01:38:47;96995.16;;;-1.91;100.00
68197;BME280;55019;49.382;11.358;2023-01-26T01:41:15;96989.50;;;-1.96;100.00
68197;BME280;55019;49.382;11.358;2023-01-26T01:43:41;97000.88;;;-1.87;100.00
68197;BME280;55019;49.382;11.358;2023-01-26T01:48:56;96991.25;;;-1.81;100.00
68197;BME280;55019;49.382;11.358;2023-01-26T01:51:56;97000.75;;;-1.69;100.00
68197;BME280;55019;49.382;11.358;2023-01-26T01:54:29;96979.69;;;-1.54;100.00
68197;BME280;55019;49.382;11.358;2023-01-26T01:57:00;96991.22;;;-1.33;100.00
68197;BME280;55019;49.382;11.358;2023-01-26T01:59:27;96982.06;;;-1.20;100.00
68197;BME280;55019;49.382;11.358;2023-01-26T02:01:54;96994.09;;;-1.08;100.00
68197;BME280;55019;49.382;11.358;2023-01-26T02:04:21;96992.91;;;-1.03;99.49
68197;BME280;55019;49.382;11.358;2023-01-26T02:06:50;96991.16;;;-1.01;98.88
68197;BME280;55019;49.382;11.358;2023-01-26T02:09:21;96989.34;;;-1.14;99.27
68197;BME280;55019;49.382;11.358;2023-01-26T02:12:08;96981.19;;;-1.19;98.50
68197;BME280;55019;49.382;11.358;2023-01-26T02:14:35;96986.38;;;-1.07;98.74
68197;BME280;55019;49.382;11.358;2023-01-26T02:17:01;96979.19;;;-0.99;98.34
68197;BME280;55019;49.382;11.358;2023-01-26T02:25:54;96980.19;;;-1.32;99.98
68197;BME280;55019;49.382;11.358;2023-01-26T02:28:24;96978.25;;;-1.27;99.99
68197;BME280;55019;49.382;11.358;2023-01-26T02:30:50;96977.91;;;-1.37;100.00
68197;BME280;55019;49.382;11.358;2023-01-26T02:33:27;96983.47;;;-1.45;100.00
68197;BME280;55019;49.382;11.358;2023-01-26T02:35:53;96976.09;;;-1.35;100.00
68197;BME280;55019;49.382;11.358;2023-01-26T02:38:20;96971.38;;;-1.25;100.00
68197;BME280;55019;49.382;11.358;2023-01-26T02:43:11;96971.28;;;-1.24;100.00
68197;BME280;55019;49.382;11.358;2023-01-26T02:45:39;96960.06;;;-1.35;100.00
68197;BME280;55019;49.382;11.358;2023-01-26T02:48:05;96963.34;;;-1.33;100.00
68197;BME280;55019;49.382;11.358;2023-01-26T02:50:32;96958.13;;;-1.61;100.00
68197;BME280;55019;49.382;11.358;2023-01-26T02:52:58;96952.56;;;-1.52;100.00
68197;BME280;55019;49.382;11.358;2023-01-26T02:55:24;96952.22;;;-1.31;100.00
68197;BME280;55019;49.382;11.358;2023-01-26T02:57:53;96954.03;;;-1.48;100.00
68197;BME280;55019;49.382;11.358;2023-01-26T03:00:23;96941.28;;;-1.46;100.00
68197;BME280;55019;49.382;11.358;2023-01-26T03:02:51;96947.97;;;-1.30;100.00
68197;BME280;55019;49.382;11.358;2023-01-26T03:05:17;96939.56;;;-1.46;100.00
68197;BME280;55019;49.382;11.358;2023-01-26T03:07:43;96946.59;;;-1.36;100.00
68197;BME280;55019;49.382;11.358;2023-01-26T03:10:09;96935.06;;;-1.41;99.88
68197;BME280;55019;49.382;11.358;2023-01-26T03:12:34;96927.53;;;-1.27;99.82
68197;BME280;55019;49.382;11.358;2023-01-26T03:15:00;96934.06;;;-1.23;99.12
68197;BME280;55019;49.382;11.358;2023-01-26T03:17:44;96932.28;;;-1.37;99.86
68197;BME280;55019;49.382;11.358;2023-01-26T03:20:09;96920.19;;;-1.32;100.00
68197;BME280;55019;49.382;11.358;2023-01-26T03:22:54;96930.06;;;-1.27;99.77
68197;BME280;55019;49.382;11.358;2023-01-26T03:25:37;96929.31;;;-1.29;100.00
68197;BME280;55019;49.382;11.358;2023-01-26T03:28:22;96929.19;;;-1.57;100.00
68197;BME280;55019;49.382;11.358;2023-01-26T03:30:51;96929.81;;;-1.38;100.00
68197;BME280;55019;49.382;11.358;2023-01-26T03:33:18;96927.28;;;-1.38;100.00
68197;BME280;55019;49.382;11.358;2023-01-26T03:35:44;96919.50;;;-1.35;100.00
68197;BME280;55019;49.382;11.358;2023-01-26T03:38:10;96923.63;;;-1.48;100.00
68197;BME280;55019;49.382;11.358;2023-01-26T03:40:35;96912.84;;;-1.51;100.00
68197;BME280;55019;49.382;11.358;2023-01-26T03:43:19;96914.94;;;-1.44;100.00
68197;BME280;55019;49.382;11.358;2023-01-26T03:46:05;96921.81;;;-1.46;100.00
68197;BME280;55019;49.382;11.358;2023-01-26T03:48:49;96920.75;;;-1.42;100.00
68197;BME280;55019;49.382;11.358;2023-01-26T03:51:33;96924.25;;;-1.29;99.74
68197;BME280;55019;49.382;11.358;2023-01-26T03:54:17;96925.41;;;-1.19;98.80
68197;BME280;55019;49.382;11.358;2023-01-26T03:57:01;96921.97;;;-1.18;98.59
68197;BME280;55019;49.382;11.358;2023-01-26T03:59:27;96909.50;;;-1.07;98.39
68197;BME280;55019;49.382;11.358;2023-01-26T04:02:08;96915.13;;;-1.02;98.03
68197;BME280;55019;49.382;11.358;2023-01-26T04:04:53;96910.38;;;-0.93;97.64
68197;BME280;55019;49.382;11.358;2023-01-26T04:07:38;96905.91;;;-1.03;97.07
68197;BME280;55019;49.382;11.358;2023-01-26T04:10:23;96904.09;;;-1.01;96.83
68197;BME280;55019;49.382;11.358;2023-01-26T04:12:48;96906.22;;;-0.94;96.79
68197;BME280;55019;49.382;11.358;2023-01-26T04:15:33;96910.00;;;-1.01;97.02
68197;BME280;55019;49.382;11.358;2023-01-26T04:18:18;96901.34;;;-1.12;97.17
68197;BME280;55019;49.382;11.358;2023-01-26T04:21:03;96906.50;;;-1.29;98.47
68197;BME280;55019;49.382;11.358;2023-01-26T04:23:47;96907.50;;;-1.16;98.00
68197;BME280;55019;49.382;11.358;2023-01-26T04:26:13;96919.25;;;-1.15;97.86
68197;BME280;55019;49.382;11.358;2023-01-26T04:28:38;96899.59;;;-1.12;98.36
68197;BME280;55019;49.382;11.358;2023-01-26T04:31:04;96910.97;;;-1.03;97.76
68197;BME280;55019;49.382;11.358;2023-01-26T04:33:29;96912.09;;;-0.93;96.16
68197;BME280;55019;49.382;11.358;2023-01-26T04:35:55;96909.19;;;-0.87;95.74
68197;BME280;55019;49.382;11.358;2023-01-26T04:38:20;96906.50;;;-0.84;95.48
68197;BME280;55019;49.382;11.358;2023-01-26T04:40:54;96917.69;;;-1.02;95.40
68197;BME280;55019;49.382;11.358;2023-01-26T04:43:20;96894.69;;;-0.99;95.85
68197;BME280;55019;49.382;11.358;2023-01-26T04:45:56;96891.94;;;-1.10;96.68
68197;BME280;55019;49.382;11.358;2023-01-26T04:48:22;96897.72;;;-1.08;97.29
68197;BME280;55019;49.382;11.358;2023-01-26T04:50:53;96906.41;;;-1.12;97.49
68197;BME280;55019;49.382;11.358;2023-01-26T04:53:18;96902.38;;;-1.01;97.21
68197;BME280;55019;49.382;11.358;2023-01-26T04:55:43;96906.47;;;-0.98;97.29
68197;BME280;55019;49.382;11.358;2023-01-26T04:58:09;96894.28;;;-1.07;96.58
68197;BME280;55019;49.382;11.358;2023-01-26T05:00:34;96899.53;;;-1.10;97.37
68197;BME280;55019;49.382;11.358;2023-01-26T05:03:00;96898.84;;;-0.98;97.07
68197;BME280;55019;49.382;11.358;2023-01-26T05:05:25;96899.25;;;-1.06;96.21
68197;BME280;55019;49.382;11.358;2023-01-26T05:07:50;96899.56;;;-1.26;96.16
68197;BME280;55019;49.382;11.358;2023-01-26T05:10:17;96908.25;;;-1.45;97.45
68197;BME280;55019;49.382;11.358;2023-01-26T05:12:43;96902.94;;;-1.25;97.02
68197;BME280;55019;49.382;11.358;2023-01-26T05:15:08;96909.91;;;-0.99;96.44
68197;BME280;55019;49.382;11.358;2023-01-26T05:17:34;96905.50;;;-1.11;96.26
68197;BME280;55019;49.382;11.358;2023-01-26T05:20:00;96898.75;;;-1.26;97.18
68197;BME280;55019;49.382;11.358;2023-01-26T05:22:26;96905.97;;;-1.05;96.26
68197;BME280;55019;49.382;11.358;2023-01-26T05:24:52;96895.78;;;-1.19;96.89
68197;BME280;55019;49.382;11.358;2023-01-26T05:27:17;96912.13;;;-1.09;96.17
68197;BME280;55019;49.382;11.358;2023-01-26T05:29:45;96899.19;;;-1.04;96.48
68197;BME280;55019;49.382;11.358;2023-01-26T05:32:11;96901.13;;;-0.94;96.14
68197;BME280;55019;49.382;11.358;2023-01-26T05:34:37;96894.84;;;-1.02;96.76
68197;BME280;55019;49.382;11.358;2023-01-26T05:37:02;96899.88;;;-0.87;96.82
68197;BME280;55019;49.382;11.358;2023-01-26T05:39:28;96903.06;;;-0.83;95.98
68197;BME280;55019;49.382;11.358;2023-01-26T05:41:53;96897.06;;;-0.82;95.72
68197;BME280;55019;49.382;11.358;2023-01-26T05:44:21;96901.53;;;-0.86;95.43
68197;BME280;55019;49.382;11.358;2023-01-26T05:46:47;96893.44;;;-0.92;95.24
68197;BME280;55019;49.382;11.358;2023-01-26T05:49:12;96896.44;;;-0.86;95.42
68197;BME280;55019;49.382;11.358;2023-01-26T05:51:38;96906.22;;;-0.94;95.14
68197;BME280;55019;49.382;11.358;2023-01-26T05:54:03;96893.63;;;-0.81;94.40
68197;BME280;55019;49.382;11.358;2023-01-26T05:56:29;96896.34;;;-0.84;94.45
68197;BME280;55019;49.382;11.358;2023-01-26T05:58:54;96903.31;;;-0.88;94.60
68197;BME280;55019;49.382;11.358;2023-01-26T06:01:19;96889.59;;;-0.99;96.17
68197;BME280;55019;49.382;11.358;2023-01-26T06:03:45;96906.81;;;-1.04;95.81
68197;BME280;55019;49.382;11.358;2023-01-26T06:06:10;96898.72;;;-1.11;96.77
68197;BME280;55019;49.382;11.358;2023-01-26T06:08:35;96906.69;;;-1.03;96.65
68197;BME280;55019;49.382;11.358;2023-01-26T06:11:01;96913.16;;;-0.97;96.37
68197;BME280;55019;49.382;11.358;2023-01-26T06:13:26;96905.22;;;-0.91;96.42
68197;BME280;55019;49.382;11.358;2023-01-26T06:15:51;96904.94;;;-1.01;95.98
68197;BME280;55019;49.382;11.358;2023-01-26T06:18:17;96898.59;;;-0.94;96.27
68197;BME280;55019;49.382;11.358;2023-01-26T06:20:42;96902.50;;;-0.88;95.87
68197;BME280;55019;49.382;11.358;2023-01-26T06:23:08;96895.97;;;-0.92;96.09
68197;BME280;55019;49.382;11.358;2023-01-26T06:25:36;96899.78;;;-0.85;96.36
68197;BME280;55019;49.382;11.358;2023-01-26T06:28:04;96891.69;;;-0.76;94.33
68197;BME280;55019;49.382;11.358;2023-01-26T06:30:29;96892.88;;;-0.97;94.93
68197;BME280;55019;49.382;11.358;2023-01-26T06:32:55;96888.88;;;-1.01;95.24
68197;BME280;55019;49.382;11.358;2023-01-26T06:35:21;96896.69;;;-0.90;95.11
68197;BME280;55019;49.382;11.358;2023-01-26T06:37:49;96897.22;;;-0.99;95.08
68197;BME280;55019;49.382;11.358;2023-01-26T06:40:15;96896.00;;;-0.78;95.20
68197;BME280;55019;49.382;11.358;2023-01-26T06:42:50;96894.78;;;-0.71;94.32
68197;BME280;55019;49.382;11.358;2023-01-26T06:45:16;96900.03;;;-0.74;93.97
68197;BME280;55019;49.382;11.358;2023-01-26T06:47:46;96895.94;;;-1.06;95.58
68197;BME280;55019;49.382;11.358;2023-01-26T06:50:14;96899.59;;;-0.82;95.24
68197;BME280;55019;49.382;11.358;2023-01-26T06:52:40;96894.22;;;-0.76;94.41
68197;BME280;55019;49.382;11.358;2023-01-26T06:55:16;96893.47;;;-0.78;94.40
68197;BME280;55019;49.382;11.358;2023-01-26T06:57:42;96894.69;;;-0.99;94.53
68197;BME280;55019;49.382;11.358;2023-01-26T07:00:10;96899.06;;;-0.87;94.57
68197;BME280;55019;49.382;11.358;2023-01-26T07:02:35;96902.81;;;-0.79;94.70
68197;BME280;55019;49.382;11.358;2023-01-26T07:05:01;96897.03;;;-0.96;95.02
68197;BME280;55019;49.382;11.358;2023-01-26T07:07:26;96901.13;;;-0.94;95.00
68197;BME280;55019;49.382;11.358;2023-01-26T07:09:52;96894.22;;;-0.76;94.08
68197;BME280;55019;49.382;11.358;2023-01-26T07:12:17;96887.75;;;-1.11;94.40
68197;BME280;55019;49.382;11.358;2023-01-26T07:14:42;96901.50;;;-1.00;94.06
68197;BME280;55019;49.382;11.358;2023-01-26T07:17:08;96896.38;;;-1.29;95.60
68197;BME280;55019;49.382;11.358;2023-01-26T07:19:33;96882.50;;;-1.53;96.95
68197;BME280;55019;49.382;11.358;2023-01-26T07:21:59;96888.13;;;-1.63;98.57
68197;BME280;55019;49.382;11.358;2023-01-26T07:24:25;96882.28;;;-1.64;98.52
68197;BME280;55019;49.382;11.358;2023-01-26T07:26:50;96890.09;;;-1.53;98.95
68197;BME280;55019;49.382;11.358;2023-01-26T07:29:16;96891.41;;;-1.46;98.09
68197;BME280;55019;49.382;11.358;2023-01-26T07:31:41;96893.38;;;-1.51;98.05
68197;BME280;55019;49.382;11.358;2023-01-26T07:34:09;96891.84;;;-1.69;99.13
68197;BME280;55019;49.382;11.358;2023-01-26T07:36:34;96892.25;;;-1.45;99.56
68197;BME280;55019;49.382;11.358;2023-01-26T07:39:00;96882.44;;;-1.51;98.92
68197;BME280;55019;49.382;11.358;2023-01-26T07:41:25;96889.81;;;-1.33;98.81
68197;BME280;55019;49.382;11.358;2023-01-26T07:43:50;96884.84;;;-1.19;98.89
68197;BME280;55019;49.382;11.358;2023-01-26T07:46:16;96895.94;;;-1.22;98.23
68197;BME280;55019;49.382;11.358;2023-01-26T07:48:41;96884.44;;;-1.27;99.10
68197;BME280;55019;49.382;11.358;2023-01-26T07:51:07;96890.38;;;-1.13;99.22
68197;BME280;55019;49.382;11.358;2023-01-26T07:53:35;96881.63;;;-1.07;98.99
68197;BME280;55019;49.382;11.358;2023-01-26T07:56:14;96884.34;;;-1.26;100.00
68197;BME280;55019;49.382;11.358;2023-01-26T07:58:41;96886.09;;;-1.26;99.98
68197;BME280;55019;49.382;11.358;2023-01-26T08:01:08;96882.03;;;-1.15;100.00
68197;BME280;55019;49.382;11.358;2023-01-26T08:03:34;96881.22;;;-1.15;99.70
68197;BME280;55019;49.382;11.358;2023-01-26T08:06:00;96884.38;;;-0.82;98.65
68197;BME280;55019;49.382;11.358;2023-01-26T08:08:26;96880.28;;;-0.69;97.75
68197;BME280;55019;49.382;11.358;2023-01-26T08:10:55;96879.44;;;-0.70;96.90
68197;BME280;55019;49.382;11.358;2023-01-26T08:13:20;96876.88;;;-0.84;97.15
68197;BME280;55019;49.382;11.358;2023-01-26T08:15:45;96890.00;;;-0.77;97.02
68197;BME280;55019;49.382;11.358;2023-01-26T08:18:11;96884.06;;;-0.76;97.37
68197;BME280;55019;49.382;11.358;2023-01-26T08:20:36;96884.94;;;-0.77;98.21
68197;BME280;55019;49.382;11.358;2023-01-26T08:23:02;96884.09;;;-0.48;97.06
68197;BME280;55019;49.382;11.358;2023-01-26T08:25:27;96885.47;;;-0.43;96.03
68197;BME280;55019;49.382;11.358;2023-01-26T08:27:53;96876.47;;;-0.48;95.80
68197;BME280;55019;49.382;11.358;2023-01-26T08:30:19;96885.16;;;-0.66;94.17
68197;BME280;55019;49.382;11.358;2023-01-26T08:32:44;96876.56;;;-0.93;96.18
68197;BME280;55019;49.382;11.358;2023-01-26T08:35:10;96883.81;;;-1.01;95.75
68197;BME280;55019;49.382;11.358;2023-01-26T08:37:35;96891.81;;;-0.79;95.78
68197;BME280;55019;49.382;11.358;2023-01-26T08:40:00;96885.84;;;-0.78;95.41
68197;BME280;55019;49.382;11.358;2023-01-26T08:42:26;96876.72;;;-0.67;94.59
68197;BME280;55019;49.382;11.358;2023-01-26T08:44:51;96883.38;;;-0.36;92.93
68197;BME280;55019;49.382;11.358;2023-01-26T08:47:17;96877.56;;;-0.66;93.02
68197;BME280;55019;49.382;11.358;2023-01-26T08:49:42;96881.91;;;-0.68;93.49
68197;BME280;55019;49.382;11.358;2023-01-26T08:52:08;96877.94;;;-0.58;92.98
68197;BME280;55019;49.382;11.358;2023-01-26T08:54:33;96877.75;;;-0.55;93.81
68197;BME280;55019;49.382;11.358;2023-01-26T08:56:59;96882.53;;;-0.65;93.38
68197;BME280;55019;49.382;11.358;2023-01-26T08:59:24;96881.38;;;-0.45;93.24
68197;BME280;55019;49.382;11.358;2023-01-26T09:01:50;96878.84;;;-0.45;93.59
68197;BME280;55019;49.382;11.358;2023-01-26T09:04:15;96887.16;;;-0.71;94.95
68197;BME280;55019;49.382;11.358;2023-01-26T09:06:40;96879.56;;;-0.57;94.75
68197;BME280;55019;49.382;11.358;2023-01-26T09:09:06;96879.00;;;-0.76;96.70
68197;BME280;55019;49.382;11.358;2023-01-26T09:11:37;96875.81;;;-0.52;96.05
68197;BME280;55019;49.382;11.358;2023-01-26T09:14:03;96888.63;;;-0.67;95.67
68197;BME280;55019;49.382;11.358;2023-01-26T09:16:28;96882.94;;;-0.86;95.30
68197;BME280;55019;49.382;11.358;2023-01-26T09:18:55;96879.75;;;-0.60;95.23
68197;BME280;55019;49.382;11.358;2023-01-26T09:21:20;96879.44;;;-0.56;95.45
68197;BME280;55019;49.382;11.358;2023-01-26T09:23:48;96879.03;;;-0.48;95.84
68197;BME280;55019;49.382;11.358;2023-01-26T09:26:13;96885.00;;;-0.63;96.54
68197;BME280;55019;49.382;11.358;2023-01-26T09:28:38;96888.53;;;-0.52;96.65
68197;BME280;55019;49.382;11.358;2023-01-26T09:31:06;96887.22;;;-0.73;97.50
68197;BME280;55019;49.382;11.358;2023-01-26T09:33:32;96881.00;;;-0.53;95.81
68197;BME280;55019;49.382;11.358;2023-01-26T09:36:09;96879.56;;;-0.29;94.83
68197;BME280;55019;49.382;11.358;2023-01-26T09:38:35;96883.91;;;-0.45;95.64
68197;BME280;55019;49.382;11.358;2023-01-26T09:43:37;96880.53;;;-0.60;96.29
68197;BME280;55019;49.382;11.358;2023-01-26T09:46:23;96881.59;;;-0.78;97.47
68197;BME280;55019;49.382;11.358;2023-01-26T09:49:05;96874.16;;;-0.81;94.88
68197;BME280;55019;49.382;11.358;2023-01-26T09:54:08;96881.38;;;-0.59;96.77
68197;BME280;55019;49.382;11.358;2023-01-26T09:56:40;96884.34;;;-0.53;96.17
68197;BME280;55019;49.382;11.358;2023-01-26T10:01:43;96877.69;;;-0.26;94.54
68197;BME280;55019;49.382;11.358;2023-01-26T10:04:31;96889.00;;;-0.45;94.84
68197;BME280;55019;49.382;11.358;2023-01-26T10:07:02;96885.63;;;-0.60;96.65
68197;BME280;55019;49.382;11.358;2023-01-26T10:09:31;96888.25;;;-0.61;96.08
68197;BME280;55019;49.382;11.358;2023-01-26T10:12:01;96883.00;;;-0.58;95.82
68197;BME280;55019;49.382;11.358;2023-01-26T10:14:42;96879.72;;;-0.74;96.38
68197;BME280;55019;49.382;11.358;2023-01-26T10:17:18;96878.25;;;-0.78;94.96
68197;BME280;55019;49.382;11.358;2023-01-26T10:19:49;96873.91;;;-0.76;96.56
68197;BME280;55019;49.382;11.358;2023-01-26T10:22:30;96855.94;;;-0.87;96.64
68197;BME280;55019;49.382;11.358;2023-01-26T10:24:59;96864.88;;;-0.66;95.53
68197;BME280;55019;49.382;11.358;2023-01-26T10:27:27;96866.50;;;-0.65;96.72
68197;BME280;55019;49.382;11.358;2023-01-26T10:29:52;96884.06;;;-0.76;97.72
68197;BME280;55019;49.382;11.358;2023-01-26T10:32:17;96877.50;;;-0.80;98.52
68197;BME280;55019;49.382;11.358;2023-01-26T10:34:45;96872.38;;;-0.65;97.99
68197;BME280;55019;49.382;11.358;2023-01-26T10:37:27;96870.38;;;-0.60;98.11
68197;BME280;55019;49.382;11.358;2023-01-26T10:40:05;96869.50;;;-0.31;96.13
68197;BME280;55019;49.382;11.358;2023-01-26T10:42:35;96868.31;;;-0.53;96.76
68197;BME280;55019;49.382;11.358;2023-01-26T10:45:22;96858.53;;;-0.59;97.47
68197;BME280;55019;49.382;11.358;2023-01-26T10:48:18;96858.03;;;-0.80;97.34
68197;BME280;55019;49.382;11.358;2023-01-26T10:50:45;96854.34;;;-0.74;97.31
68197;BME280;55019;49.382;11.358;2023-01-26T10:53:18;96856.09;;;-0.90;97.52
68197;BME280;55019;49.382;11.358;2023-01-26T10:56:11;96856.06;;;-0.75;98.02
68197;BME280;55019;49.382;11.358;2023-01-26T10:58:50;96856.31;;;-0.79;97.94
68197;BME280;55019;49.382;11.358;2023-01-26T11:01:17;96851.19;;;-1.07;98.89
68197;BME280;55019;49.382;11.358;2023-01-26T11:04:04;96844.94;;;-1.31;100.00
68197;BME280;55019;49.382;11.358;2023-01-26T11:06:30;96843.75;;;-1.10;99.50
68197;BME280;55019;49.382;11.358;2023-01-26T11:09:33;96851.16;;;-0.78;98.39
68197;BME280;55019;49.382;11.358;2023-01-26T11:12:03;96845.97;;;-0.90;98.42
68197;BME280;55019;49.382;11.358;2023-01-26T11:14:31;96845.78;;;-0.87;98.54
68197;BME280;55019;49.382;11.358;2023-01-26T11:17:28;96840.09;;;-0.91;98.14
68197;BME280;55019;49.382;11.358;2023-01-26T11:22:35;96836.84;;;-0.93;98.39
68197;BME280;55019;49.382;11.358;2023-01-26T11:39:58;96829.78;;;-0.88;97.46
68197;BME280;55019;49.382;11.358;2023-01-26T11:42:54;96824.03;;;-1.05;97.81
68197;BME280;55019;49.382;11.358;2023-01-26T11:45:27;96822.75;;;-0.98;97.30
68197;BME280;55019;49.382;11.358;2023-01-26T11:48:03;96813.19;;;-0.79;97.18
68197;BME280;55019;49.382;11.358;2023-01-26T11:50:56;96813.00;;;-0.90;97.30
68197;BME280;55019;49.382;11.358;2023-01-26T11:56:24;96801.97;;;-0.61;95.19
68197;BME280;55019;49.382;11.358;2023-01-26T11:59:01;96800.59;;;-0.81;95.20
68197;BME280;55019;49.382;11.358;2023-01-26T12:01:35;96805.75;;;-0.82;95.60
68197;BME280;55019;49.382;11.358;2023-01-26T12:04:03;96806.31;;;-0.77;95.93
68197;BME280;55019;49.382;11.358;2023-01-26T12:06:39;96803.41;;;-0.85;96.22
68197;BME280;55019;49.382;11.358;2023-01-26T12:09:31;96799.41;;;-0.89;96.67
68197;BME280;55019;49.382;11.358;2023-01-26T12:12:07;96793.00;;;-0.67;95.50
68197;BME280;55019;49.382;11.358;2023-01-26T12:14:39;96787.13;;;-0.67;95.03
68197;BME280;55019;49.382;11.358;2023-01-26T12:17:25;96786.09;;;-0.65;95.13
68197;BME280;55019;49.382;11.358;2023-01-26T12:22:37;96790.81;;;-0.87;96.59
68197;BME280;55019;49.382;11.358;2023-01-26T12:28:09;96779.31;;;-0.78;97.23
68197;BME280;55019;49.382;11.358;2023-01-26T12:30:44;96783.22;;;-0.73;95.76
68197;BME280;55019;49.382;11.358;2023-01-26T12:33:11;96769.44;;;-0.83;95.70
68197;BME280;55019;49.382;11.358;2023-01-26T12:38:37;96768.72;;;-0.99;97.42
68197;BME280;55019;49.382;11.358;2023-01-26T12:46:36;96764.44;;;-0.84;96.21
68197;BME280;55019;49.382;11.358;2023-01-26T12:49:11;96760.84;;;-0.66;95.39
68197;BME280;55019;49.382;11.358;2023-01-26T12:51:43;96755.50;;;-0.90;95.45
68197;BME280;55019;49.382;11.358;2023-01-26T12:56:54;96750.50;;;-0.91;96.34
68197;BME280;55019;49.382;11.358;2023-01-26T12:59:36;96754.09;;;-1.09;96.33
68197;BME280;55019;49.382;11.358;2023-01-26T13:02:29;96755.19;;;-0.99;95.69
68197;BME280;55019;49.382;11.358;2023-01-26T13:04:57;96753.22;;;-0.94;95.97
68197;BME280;55019;49.382;11.358;2023-01-26T13:07:28;96755.38;;;-0.88;95.39
68197;BME280;55019;49.382;11.358;2023-01-26T13:15:21;96746.84;;;-0.45;92.18
68197;BME280;55019;49.382;11.358;2023-01-26T13:17:50;96756.22;;;-0.74;93.40
68197;BME280;55019;49.382;11.358;2023-01-26T13:20:40;96753.03;;;-0.63;92.21
68197;BME280;55019;49.382;11.358;2023-01-26T13:28:36;96754.00;;;-1.22;95.92
68197;BME280;55019;49.382;11.358;2023-01-26T13:31:03;96744.31;;;-1.15;95.21
68197;BME280;55019;49.382;11.358;2023-01-26T13:33:29;96759.19;;;-1.09;95.62
68197;BME280;55019;49.382;11.358;2023-01-26T13:35:55;96745.84;;;-1.27;95.29
68197;BME280;55019;49.382;11.358;2023-01-26T13:38:37;96751.75;;;-1.26;94.92
68197;BME280;55019;49.382;11.358;2023-01-26T13:41:07;96746.69;;;-0.98;94.69
68197;BME280;55019;49.382;11.358;2023-01-26T13:44:12;96749.22;;;-0.84;93.88
68197;BME280;55019;49.382;11.358;2023-01-26T13:46:44;96748.34;;;-0.69;92.34
68197;BME280;55019;49.382;11.358;2023-01-26T13:49:36;96747.59;;;-0.85;91.67
68197;BME280;55019;49.382;11.358;2023-01-26T13:52:03;96750.72;;;-1.24;93.75
68197;BME280;55019;49.382;11.358;2023-01-26T13:54:28;96749.25;;;-1.42;95.69
68197;BME280;55019;49.382;11.358;2023-01-26T13:57:05;96745.03;;;-1.56;97.57
68197;BME280;55019;49.382;11.358;2023-01-26T13:59:31;96737.16;;;-1.66;97.47
68197;BME280;55019;49.382;11.358;2023-01-26T14:01:57;96743.91;;;-1.37;97.10
68197;BME280;55019;49.382;11.358;2023-01-26T14:04:28;96723.72;;;-1.52;97.18
68197;BME280;55019;49.382;11.358;2023-01-26T14:07:00;96747.25;;;-1.50;97.70
68197;BME280;55019;49.382;11.358;2023-01-26T14:09:29;96731.19;;;-1.65;98.33